Language selection

Features

My Weather Profile Weather Topics  | 

Strait of Georgia - south of Nanaimo: Past 24 Hour Conditions

 

English Bay - 46304

01:00 AM PDT 14 April 2021Buoy position: 49.3N 123.36W
Disclaimer

This table is a summary of hourly weather conditions for the past 24 hours.
Please note that these observations might not always be representative of weather conditions over their associated marine area.

Date / Time
(PDT)
Wind(knots) Wave height(m) Wave period(s) Pressure(kPa) Air tempC) Water tempC)
14 April 2021
1:00 W 7 gust 9 0.3 2.7 102.5 10 9
0:00 NW 4 gust 6 0.3 2.9 102.5 10 9
13 April 2021
23:00 SW 2 gust 4 0.3 3.1 102.6 10 9
22:00 W 5 gust 7 0.3 3.1 102.6 10 9
21:00 NW 7 gust 9 0.4 3.1 102.6 11 9
20:00 W 11 gust 13 0.5 3.1 102.5 11 9
19:00 WNW 12 gust 13 0.4 3.0 102.6 11 9
18:00 WNW 12 gust 14 0.4 3.1 102.6 11 9
17:00 WNW 11 gust 13 0.4 3.2 102.7 11 9
16:00 WNW 12 gust 13 0.4 3.2 102.8 10 9
15:00 WNW 12 gust 15 0.5 3.3 102.8 10 9
14:00 WNW 14 gust 17 0.5 3.2 102.9 9 9
13:00 W 16 gust 18 0.7 3.5 102.9 9 9
12:00 W 14 gust 17 0.8 3.8 103.0 9 9
11:00 W 13 gust 21 0.7 3.5 103.0 10 9
10:00 NNE 16 gust 19 0.5 2.9 103.0 11 9
9:00 NNE 18 gust 22 0.5 2.6 103.0 10 9
8:00 NNE 22 gust 26 0.5 2.6 102.9 9 9
7:00 NNE 18 gust 22 0.3 2.3 102.9 10 9
6:00 NNE 19 gust 22 0.5 2.3 102.9 9 8
5:00 NNE 19 gust 23 0.5 2.6 102.9 9 9
4:00 NNE 19 gust 23 0.5 2.7 102.9 9 9
3:00 NNE 17 gust 20 0.5 2.6 102.9 10 9
2:00 NNE 16 gust 21 0.4 2.3 102.9 11 9
1:00 NNE 12 gust 16 0.3 2.2 102.8 11 9

Zoom-in to make a selection

Map of Pacific - Georgia Basin marine weather areas Sentry Shoal - 46131 Halibut Bank - 46146 La Perouse Bank - 46206 Georgia Strait - 46303 English Bay - 46304 Discovery Island Esquimalt Harbour Kelp Reefs Malahat Race Rocks Lightstation Saturna Island Sheringham Point University of Victoria Victoria Gonzales Victoria Int'l Airport Ballenas Islands Campbell River Airport Comox Airport Entrance Island Fanny Island Nanaimo Airport Sisters Islets Estevan Point Port Alberni Tofino Airport Grief Point Howe Sound - Pam Rocks Powell River Airport Sechelt Squamish Airport Point Atkinson Sand Heads Lightstation Tsawwassen Ferry Terminal Vancouver Int'l Airport Vancouver Harbour West Vancouver
Legend:
buoy Buoy
land station Land Station

Pacific - Georgia Basin Area

Another Region

What we are doing

Date modified: